Time;durP1;ratioP1;P1;durP2;ratioP2;P2;SDS_P1;SDS_P2;PMS_P1;PMS_P2;Temp;Humidity;BMP_temperature;BMP_pressure;BME280_temperature;BME280_humidity;BME280_pressure;Samples;Min_cycle;Max_cycle;Signal;HPM_P1;HPM_P2
2022/06/20 00:00:56;;;;;;;;;45.75;38.50;;;;;19.91;82.03;100697.50;5081971;27;45245;-72
2022/06/20 00:03:41;;;;;;;;;47.25;40.00;;;;;19.89;82.59;100709.59;5070303;27;46237;-73
2022/06/20 00:06:12;;;;;;;;;44.00;37.75;;;;;20.03;82.04;100729.09;5091034;27;45865;-72
2022/06/20 00:08:37;;;;;;;;;43.75;37.00;;;;;20.02;82.21;100725.56;5081564;27;45276;-72
2022/06/20 00:11:02;;;;;;;;;44.75;36.75;;;;;20.05;82.65;100710.75;5081877;27;45458;-72
2022/06/20 00:13:31;;;;;;;;;45.75;38.00;;;;;20.01;83.08;100721.22;5081721;27;45283;-72
2022/06/20 00:16:00;;;;;;;;;47.25;40.00;;;;;20.06;82.86;100734.81;5075750;27;48453;-72
2022/06/20 00:18:25;;;;;;;;;46.50;39.00;;;;;20.10;82.86;100734.34;5083051;27;45396;-72
2022/06/20 00:20:50;;;;;;;;;46.00;38.00;;;;;20.08;82.97;100736.47;5070824;28;45380;-72
2022/06/20 00:23:16;;;;;;;;;44.00;38.00;;;;;20.09;82.59;100759.69;5081395;27;45367;-72
2022/06/20 00:25:41;;;;;;;;;40.50;35.25;;;;;20.07;82.54;100784.19;5070886;27;47190;-73
2022/06/20 00:28:09;;;;;;;;;44.50;38.25;;;;;20.05;83.38;100800.59;5087353;27;45285;-72
2022/06/20 00:30:35;;;;;;;;;42.00;36.00;;;;;20.10;83.72;100791.81;5081988;27;45232;-73
2022/06/20 00:33:01;;;;;;;;;47.75;38.25;;;;;20.03;83.79;100762.25;5081519;27;46141;-73
2022/06/20 00:35:27;;;;;;;;;39.25;34.00;;;;;20.13;83.29;100766.22;5063186;28;47342;-73
2022/06/20 00:37:57;;;;;;;;;42.50;36.00;;;;;20.12;83.54;100749.25;5081245;27;45262;-73
2022/06/20 00:40:34;;;;;;;;;45.00;38.50;;;;;20.11;84.29;100752.19;5063286;27;45280;-73
2022/06/20 00:43:00;;;;;;;;;41.50;34.75;;;;;20.02;83.83;100730.94;5081358;27;45286;-73
2022/06/20 00:45:30;;;;;;;;;44.00;36.75;;;;;20.06;83.59;100740.19;5081263;27;46390;-73
2022/06/20 00:48:04;;;;;;;;;42.75;36.75;;;;;20.09;82.99;100746.19;5081378;27;45373;-73
2022/06/20 00:50:32;;;;;;;;;41.50;36.25;;;;;20.08;84.00;100733.78;5081219;27;45387;-73
2022/06/20 00:53:13;;;;;;;;;48.00;40.25;;;;;20.02;83.67;100727.44;5089097;27;45466;-73
2022/06/20 00:55:59;;;;;;;;;41.25;35.25;;;;;20.05;83.46;100726.94;5079722;28;47283;-73
2022/06/20 00:58:33;;;;;;;;;44.25;36.50;;;;;20.02;83.12;100722.06;5088520;27;45754;-73
2022/06/20 01:00:59;;;;;;;;;45.75;38.25;;;;;20.02;83.63;100722.84;5076730;27;45414;-73
2022/06/20 01:03:29;;;;;;;;;46.25;38.00;;;;;20.06;83.81;100731.31;5062631;28;47295;-74
2022/06/20 01:06:08;;;;;;;;;42.75;36.75;;;;;20.06;84.19;100729.41;5089560;27;45362;-73
2022/06/20 01:08:41;;;;;;;;;41.75;35.50;;;;;20.05;83.97;100732.34;5080672;27;45391;-72
2022/06/20 01:11:16;;;;;;;;;41.75;35.25;;;;;20.00;83.98;100729.53;5081108;27;45267;-73
2022/06/20 01:13:42;;;;;;;;;43.00;35.75;;;;;20.02;83.66;100724.75;5081114;27;45430;-73
2022/06/20 01:16:25;;;;;;;;;46.00;38.00;;;;;20.06;84.55;100737.50;5081003;27;45504;-73
2022/06/20 01:18:52;;;;;;;;;45.25;38.75;;;;;20.08;84.87;100736.47;5080963;27;45279;-73
2022/06/20 01:21:24;;;;;;;;;43.50;37.75;;;;;20.05;85.29;100743.13;5080695;27;45257;-73
2022/06/20 01:23:55;;;;;;;;;45.25;37.50;;;;;20.08;84.87;100758.03;5069419;27;47283;-72
2022/06/20 01:26:39;;;;;;;;;41.25;35.50;;;;;20.03;84.93;100767.66;5099040;27;45450;-73
2022/06/20 01:29:08;;;;;;;;;48.75;40.00;;;;;19.94;85.32;100742.09;5092792;27;45353;-72
2022/06/20 01:31:39;;;;;;;;;43.50;37.50;;;;;19.95;86.03;100730.25;5080434;27;45280;-73
2022/06/20 01:34:06;;;;;;;;;43.75;36.50;;;;;20.02;85.86;100743.63;5062175;28;45582;-73
2022/06/20 01:39:21;;;;;;;;;45.50;38.75;;;;;19.98;86.00;100745.13;5092208;27;45312;-73
2022/06/20 01:44:37;;;;;;;;;39.75;34.25;;;;;19.93;85.32;100718.84;5080236;27;45319;-72
2022/06/20 01:47:03;;;;;;;;;41.25;34.25;;;;;19.84;86.02;100706.81;5079938;27;47032;-73
2022/06/20 01:49:32;;;;;;;;;42.00;36.00;;;;;19.88;85.99;100705.28;5080590;27;45997;-72
2022/06/20 01:52:28;;;;;;;;;41.50;35.25;;;;;19.87;86.38;100700.97;5080020;27;45327;-72
2022/06/20 01:55:01;;;;;;;;;42.50;37.00;;;;;19.89;85.81;100705.03;5083976;27;45373;-73
2022/06/20 01:57:30;;;;;;;;;42.25;36.75;;;;;19.89;86.19;100688.03;5086494;27;46091;-73
2022/06/20 02:00:00;;;;;;;;;42.25;35.50;;;;;19.88;86.23;100672.91;5080219;27;45493;-73
2022/06/20 02:02:29;;;;;;;;;38.00;33.75;;;;;19.85;86.19;100665.31;5080260;27;45347;-72
2022/06/20 02:04:54;;;;;;;;;43.75;37.75;;;;;19.87;86.04;100649.72;5088590;27;45275;-72
2022/06/20 02:07:20;;;;;;;;;38.25;33.75;;;;;19.86;86.92;100621.94;5079852;27;46048;-72
2022/06/20 02:09:45;;;;;;;;;38.25;34.00;;;;;19.91;86.31;100616.63;5080066;27;45279;-72
2022/06/20 02:12:12;;;;;;;;;40.75;35.25;;;;;19.82;86.41;100599.19;5079869;28;45485;-72
2022/06/20 02:14:46;;;;;;;;;40.50;35.50;;;;;19.71;85.52;100575.78;5080049;27;45316;-72
2022/06/20 02:17:23;;;;;;;;;37.25;32.50;;;;;19.71;86.29;100575.78;5079954;27;46746;-72
2022/06/20 02:19:53;;;;;;;;;39.00;33.50;;;;;19.66;86.63;100557.63;5079771;27;45355;-72
2022/06/20 02:22:20;;;;;;;;;34.67;29.67;;;;;19.65;87.05;100512.88;5079807;27;45363;-73
2022/06/20 02:24:52;;;;;;;;;37.33;32.67;;;;;19.59;87.07;100449.13;5079927;27;45550;-72
2022/06/20 02:27:28;;;;;;;;;39.50;34.00;;;;;19.54;87.48;100380.63;5079772;28;46273;-72
2022/06/20 02:29:54;;;;;;;;;34.00;31.00;;;;;19.55;87.75;100357.97;5079423;27;45257;-72
2022/06/20 02:32:26;;;;;;;;;38.75;34.25;;;;;19.43;86.85;100354.56;5080025;28;45326;-72
2022/06/20 02:34:53;;;;;;;;;40.00;34.33;;;;;19.40;87.06;100401.66;5079824;28;45356;-72
2022/06/20 02:37:24;;;;;;;;;38.50;33.25;;;;;19.32;86.59;100436.25;5081258;27;48236;-72
2022/06/20 02:40:03;;;;;;;;;34.50;31.50;;;;;19.34;86.72;100478.09;5087189;27;45332;-72
2022/06/20 02:42:38;;;;;;;;;38.50;33.25;;;;;19.32;86.61;100480.19;5079742;27;45376;-72
2022/06/20 02:45:06;;;;;;;;;35.25;32.25;;;;;19.30;86.96;100476.91;5079719;27;45502;-72
2022/06/20 02:47:34;;;;;;;;;35.67;30.33;;;;;19.20;87.89;100457.84;5079640;27;45332;-72
2022/06/20 02:50:02;;;;;;;;;31.00;28.67;;;;;19.25;87.88;100469.53;5079016;28;45648;-72
2022/06/20 02:52:36;;;;;;;;;38.67;33.00;;;;;19.22;88.22;100483.50;5079949;27;45312;-72
2022/06/20 02:55:03;;;;;;;;;31.75;30.25;;;;;19.24;88.27;100484.06;5092137;27;45386;-72
2022/06/20 02:57:41;;;;;;;;;35.25;31.75;;;;;19.35;88.02;100505.81;5078869;27;45354;-72
2022/06/20 03:00:13;;;;;;;;;33.75;31.00;;;;;19.45;88.59;100527.56;5068945;27;45328;-72
2022/06/20 03:02:42;;;;;;;;;41.25;34.00;;;;;19.45;88.69;100532.16;5084652;27;45521;-73
2022/06/20 03:05:08;;;;;;;;;35.25;31.50;;;;;19.49;88.86;100579.97;5076595;27;47914;-73
2022/06/20 03:07:37;;;;;;;;;37.50;32.50;;;;;19.38;88.66;100595.09;5086016;27;45481;-74
2022/06/20 03:10:11;;;;;;;;;40.00;34.00;;;;;19.37;89.21;100603.41;5079045;27;45437;-72
2022/06/20 03:12:36;;;;;;;;;37.00;32.75;;;;;19.21;89.63;100603.06;5079352;27;45399;-73
2022/06/20 03:15:04;;;;;;;;;40.25;33.50;;;;;19.17;90.72;100605.44;5078768;28;45385;-74
2022/06/20 03:17:29;;;;;;;;;36.75;30.75;;;;;19.11;90.39;100608.22;5079282;27;45387;-72
2022/06/20 03:20:00;;;;;;;;;42.00;33.75;;;;;19.18;90.67;100625.91;5078779;27;45323;-73
2022/06/20 03:22:35;;;;;;;;;37.25;30.00;;;;;19.10;90.39;100625.44;5070343;27;45244;-73
2022/06/20 03:25:02;;;;;;;;;28.50;27.75;;;;;19.13;90.27;100624.97;5078015;27;45512;-74
2022/06/20 03:27:36;;;;;;;;;37.00;32.75;;;;;19.10;90.06;100638.91;5079005;28;47686;-74
2022/06/20 03:30:25;;;;;;;;;26.00;24.00;;;;;19.13;90.16;100662.69;5078797;27;45383;-73
2022/06/20 03:32:51;;;;;;;;;33.50;31.00;;;;;19.03;90.20;100671.31;5061072;27;45544;-73
2022/06/20 03:35:17;;;;;;;;;36.50;31.75;;;;;19.08;90.71;100703.78;5078759;27;45458;-73
2022/06/20 03:37:43;;;;;;;;;38.50;32.75;;;;;19.02;90.14;100727.06;5078782;27;46261;-72
2022/06/20 03:40:09;;;;;;;;;37.25;33.00;;;;;18.99;90.22;100727.50;5078572;27;45292;-73
2022/06/20 03:42:35;;;;;;;;;34.75;30.50;;;;;19.18;90.37;100727.44;5079046;27;45279;-73
2022/06/20 03:45:03;;;;;;;;;48.00;40.00;;;;;19.20;90.11;100732.59;5073842;27;45529;-72
2022/06/20 03:47:45;;;;;;;;;42.00;36.75;;;;;19.30;89.49;100728.28;5080515;27;47652;-73
2022/06/20 03:50:20;;;;;;;;;32.50;29.75;;;;;19.14;89.95;100723.59;5084788;27;45274;-73
2022/06/20 03:52:57;;;;;;;;;33.50;30.00;;;;;19.13;89.85;100735.41;5081764;27;45350;-73
2022/06/20 03:55:29;;;;;;;;;34.50;31.00;;;;;19.18;90.63;100757.91;5088022;27;45370;-73
2022/06/20 03:58:15;;;;;;;;;36.75;31.75;;;;;19.18;90.35;100768.69;5077692;27;46119;-72
2022/06/20 04:00:49;;;;;;;;;35.00;31.50;;;;;19.10;90.34;100766.34;5079861;27;45589;-73
2022/06/20 04:03:21;;;;;;;;;36.75;32.50;;;;;19.15;90.59;100779.09;5083546;27;45422;-72
2022/06/20 04:05:58;;;;;;;;;38.25;33.00;;;;;19.20;90.54;100764.94;5075779;27;46469;-73
2022/06/20 04:11:36;;;;;;;;;37.75;33.75;;;;;19.19;89.99;100745.28;5084329;27;45327;-73
2022/06/20 04:14:17;;;;;;;;;37.75;30.75;;;;;19.14;90.46;100751.34;5063951;28;45320;-73
2022/06/20 04:18:27;;;;;;;;;36.75;31.50;;;;;19.28;90.04;100772.69;5081694;27;45466;-74
2022/06/20 04:19:52;;;;;;;;;35.00;30.67;;;;;19.29;90.27;100780.53;5081415;27;46068;-74
2022/06/20 04:22:27;;;;;;;;;29.67;28.67;;;;;19.25;90.05;100773.94;5081799;27;45248;-72
2022/06/20 04:25:19;;;;;;;;;35.75;31.75;;;;;19.29;89.90;100785.94;5081882;27;45216;-74
2022/06/20 04:27:52;;;;;;;;;33.50;29.75;;;;;19.35;89.57;100797.66;5081526;27;45521;-73
2022/06/20 04:30:26;;;;;;;;;33.00;30.67;;;;;19.33;89.65;100791.66;5081277;27;45336;-73
2022/06/20 04:32:58;;;;;;;;;29.67;28.00;;;;;19.25;89.02;100790.13;5081618;27;45723;-74
2022/06/20 04:35:35;;;;;;;;;34.75;31.75;;;;;19.27;88.96;100806.88;5081601;27;45284;-73
2022/06/20 04:38:22;;;;;;;;;34.25;31.50;;;;;19.21;89.17;100799.72;5081162;27;45350;-73
2022/06/20 04:40:58;;;;;;;;;35.50;32.00;;;;;19.11;88.36;100794.91;5095367;27;46277;-72
2022/06/20 04:43:36;;;;;;;;;31.67;30.00;;;;;19.28;88.59;100815.78;5072989;27;45451;-73
2022/06/20 04:46:13;;;;;;;;;36.75;32.00;;;;;19.13;88.78;100817.03;5093841;27;45268;-74
2022/06/20 04:48:38;;;;;;;;;41.75;32.75;;;;;19.12;88.88;100807.31;5100846;27;45190;-73
2022/06/20 04:51:12;;;;;;;;;33.50;31.00;;;;;19.02;88.65;100802.47;5081671;27;46923;-73
2022/06/20 04:53:42;;;;;;;;;40.50;34.00;;;;;19.05;88.62;100817.34;5075411;27;45328;-74
2022/06/20 04:56:11;;;;;;;;;31.67;30.33;;;;;19.00;88.90;100820.72;5086317;27;45404;-73
2022/06/20 04:58:44;;;;;;;;;36.75;32.75;;;;;18.99;88.79;100835.22;5081391;27;45182;-74
2022/06/20 05:01:10;;;;;;;;;36.75;33.25;;;;;19.03;88.05;100849.03;5081002;27;46211;-74
2022/06/20 05:03:41;;;;;;;;;36.00;31.67;;;;;19.03;88.85;100862.50;5062891;28;45494;-73
2022/06/20 05:06:14;;;;;;;;;36.67;31.67;;;;;19.04;88.90;100864.19;5085618;27;45657;-73
2022/06/20 05:08:49;;;;;;;;;33.67;30.00;;;;;18.99;88.88;100855.94;5068851;27;46158;-73
2022/06/20 05:11:26;;;;;;;;;35.67;32.33;;;;;19.14;88.68;100869.03;5087665;27;46363;-72
2022/06/20 05:14:01;;;;;;;;;31.00;27.67;;;;;19.02;88.06;100867.09;5080620;27;45338;-73
2022/06/20 05:16:31;;;;;;;;;35.67;31.00;;;;;18.96;88.21;100861.78;5081154;27;45330;-72
2022/06/20 05:19:05;;;;;;;;;32.33;30.00;;;;;19.00;88.24;100871.03;5081078;27;45633;-73
2022/06/20 05:21:37;;;;;;;;;33.67;31.00;;;;;18.90;88.01;100860.81;5080642;27;45417;-74
2022/06/20 05:24:12;;;;;;;;;35.33;31.00;;;;;18.97;87.67;100880.41;5062285;28;46040;-73
2022/06/20 05:26:43;;;;;;;;;34.00;30.33;;;;;18.98;87.55;100871.31;5080874;27;45320;-73
2022/06/20 05:29:17;;;;;;;;;34.75;31.75;;;;;18.93;87.75;100874.69;5080823;27;45526;-73
2022/06/20 05:31:46;;;;;;;;;34.50;31.25;;;;;18.91;87.35;100887.53;5076583;27;48281;-73
2022/06/20 05:34:46;;;;;;;;;33.75;31.25;;;;;18.91;87.30;100892.09;5098959;27;45509;-73
2022/06/20 05:37:38;;;;;;;;;24.67;21.00;;;;;18.84;87.56;100892.19;5099807;27;45486;-73
2022/06/20 05:40:33;;;;;;;;;56.75;45.00;;;;;18.92;88.08;100901.81;5099376;27;45477;-73
2022/06/20 05:42:59;;;;;;;;;37.33;32.33;;;;;18.81;87.65;100884.56;5080459;27;46410;-73
2022/06/20 05:45:28;;;;;;;;;31.00;29.33;;;;;18.95;87.88;100904.06;5080320;27;45538;-72
2022/06/20 05:47:56;;;;;;;;;45.00;36.75;;;;;18.89;87.39;100892.31;5080838;27;45309;-73
2022/06/20 05:50:45;;;;;;;;;37.75;33.50;;;;;18.90;87.60;100910.13;5080074;27;45394;-74
2022/06/20 05:53:24;;;;;;;;;31.33;30.00;;;;;18.89;87.52;100905.78;5093075;27;45414;-73
2022/06/20 05:55:52;;;;;;;;;33.00;29.33;;;;;18.87;87.85;100901.66;5086108;27;45393;-74
2022/06/20 05:58:26;;;;;;;;;28.67;27.67;;;;;18.95;87.36;100914.84;5080419;27;45318;-75
2022/06/20 06:00:54;;;;;;;;;32.33;29.67;;;;;18.95;87.16;100922.09;5080009;27;45505;-74
2022/06/20 06:03:31;;;;;;;;;28.67;26.67;;;;;18.85;87.51;100918.06;5068667;27;47073;-75
2022/06/20 06:06:03;;;;;;;;;28.00;26.00;;;;;18.89;87.35;100921.94;5090892;27;45387;-75
2022/06/20 06:08:42;;;;;;;;;28.33;27.33;;;;;18.98;88.17;100933.25;5085996;27;45472;-75
2022/06/20 06:11:26;;;;;;;;;32.67;28.33;;;;;18.95;86.91;100925.63;5091488;27;45269;-75
2022/06/20 06:14:13;;;;;;;;;25.33;24.33;;;;;18.93;87.36;100944.69;5082069;27;46110;-75
2022/06/20 06:16:48;;;;;;;;;30.00;29.00;;;;;18.87;86.97;100942.88;5080364;27;45342;-78
2022/06/20 06:19:22;;;;;;;;;33.00;30.00;;;;;18.87;87.02;100955.53;5079813;27;45249;-74
2022/06/20 06:21:49;;;;;;;;;28.00;28.00;;;;;18.87;87.81;100952.81;5079838;27;46279;-75
2022/06/20 06:24:18;;;;;;;;;27.00;26.67;;;;;18.88;87.85;100960.69;5088557;27;45579;-76
2022/06/20 06:26:46;;;;;;;;;23.67;23.67;;;;;18.98;88.15;100953.94;5079476;27;45429;-76
2022/06/20 06:29:26;;;;;;;;;28.33;27.00;;;;;19.02;87.68;100965.91;5071236;27;45387;-75
2022/06/20 06:31:58;;;;;;;;;124.33;111.33;;;;;18.98;87.43;100957.47;5082495;27;45625;-75
2022/06/20 06:35:00;;;;;;;;;33.00;30.75;;;;;19.05;87.62;100969.00;5079812;27;46120;-75
2022/06/20 06:37:38;;;;;;;;;31.67;30.00;;;;;18.99;87.26;100972.59;5098440;27;45297;-75
2022/06/20 06:40:22;;;;;;;;;33.25;30.75;;;;;19.03;87.18;100987.22;5082223;27;45425;-77
2022/06/20 06:42:48;;;;;;;;;33.50;30.50;;;;;19.02;87.17;100991.00;5080318;27;46881;-76
2022/06/20 06:45:23;;;;;;;;;37.75;32.50;;;;;18.93;86.86;100992.31;5095414;27;46212;-75
2022/06/20 06:47:59;;;;;;;;;44.00;36.50;;;;;18.93;87.03;100992.31;5079740;27;45306;-75
2022/06/20 06:50:35;;;;;;;;;26.67;25.67;;;;;18.95;86.82;100987.56;5061959;28;45550;-78
2022/06/20 06:53:13;;;;;;;;;30.67;27.00;;;;;18.89;86.21;101001.91;5072941;27;46322;-75
2022/06/20 06:55:47;;;;;;;;;24.00;21.00;;;;;18.79;86.28;100995.16;5068133;28;47295;-75
2022/06/20 06:58:44;;;;;;;;;26.67;25.33;;;;;18.83;86.48;101011.72;5078979;27;45599;-75
2022/06/20 07:01:17;;;;;;;;;26.33;26.00;;;;;18.83;86.05;101010.88;5075228;27;45503;-76
2022/06/20 07:03:51;;;;;;;;;31.33;28.33;;;;;18.84;86.22;101015.19;5079046;28;45398;-74
2022/06/20 07:06:33;;;;;;;;;25.67;25.67;;;;;18.85;86.24;101017.66;5077379;27;45402;-76
2022/06/20 07:09:36;;;;;;;;;26.00;26.00;;;;;18.62;86.14;100965.28;5078070;28;45452;-75
2022/06/20 07:12:14;;;;;;;;;27.67;24.00;;;;;18.86;85.82;101010.44;5078692;27;45495;-75
2022/06/20 07:14:44;;;;;;;;;27.00;27.00;;;;;18.87;85.91;101014.75;5078505;27;45636;-76
2022/06/20 07:17:18;;;;;;;;;23.33;23.33;;;;;18.84;86.25;101013.34;5078749;27;46211;-75
2022/06/20 07:19:47;;;;;;;;;25.67;25.00;;;;;18.84;86.81;101009.81;5078669;27;45416;-76
2022/06/20 07:22:15;;;;;;;;;53.00;42.00;;;;;18.87;86.30;101012.06;5079091;28;45366;-75
2022/06/20 07:24:43;;;;;;;;;49.50;40.50;;;;;18.83;86.02;101008.19;5079112;28;45457;-76
2022/06/20 07:27:28;;;;;;;;;37.50;33.50;;;;;18.92;85.93;101020.31;5060847;28;47660;-76
2022/06/20 07:30:07;;;;;;;;;28.00;25.67;;;;;18.85;85.54;101016.88;5078581;27;45473;-77
2022/06/20 07:32:51;;;;;;;;;27.33;27.00;;;;;18.86;85.17;101027.38;5069738;27;45271;-77
2022/06/20 07:35:48;;;;;;;;;28.00;26.33;;;;;18.78;85.36;101039.28;5082299;27;45546;-77
2022/06/20 07:38:31;;;;;;;;;26.00;25.00;;;;;18.75;85.81;101038.91;5081061;27;45281;-77
2022/06/20 07:41:06;;;;;;;;;25.33;24.00;;;;;18.75;85.53;101044.28;5082439;27;45314;-78
2022/06/20 07:43:39;;;;;;;;;29.33;28.00;;;;;18.64;85.57;101022.44;5082564;27;45321;-77
2022/06/20 07:46:24;;;;;;;;;24.00;24.00;;;;;18.70;85.30;101041.44;5082136;27;45301;-78
2022/06/20 07:48:56;;;;;;;;;28.33;28.00;;;;;18.66;84.95;101049.97;5082097;27;45369;-77
2022/06/20 07:51:30;;;;;;;;;43.00;36.00;;;;;18.65;85.65;101052.88;5082356;27;45901;-77
2022/06/20 07:54:08;;;;;;;;;27.00;25.67;;;;;18.60;85.54;101048.16;5095357;27;45283;-76
2022/06/20 07:56:41;;;;;;;;;34.75;29.75;;;;;18.50;85.98;101040.56;5083905;27;46194;-77
2022/06/20 07:59:33;;;;;;;;;30.33;27.67;;;;;18.61;85.43;101065.94;5088583;27;45466;-77
2022/06/20 08:02:17;;;;;;;;;30.33;28.67;;;;;18.57;85.89;101059.34;5076995;27;45276;-76
2022/06/20 08:04:46;;;;;;;;;29.00;28.00;;;;;18.58;85.90;101068.25;5082260;27;45432;-77
2022/06/20 08:07:20;;;;;;;;;36.00;32.00;;;;;18.58;85.86;101066.38;5093632;27;45354;-78
2022/06/20 08:10:07;;;;;;;;;28.00;26.00;;;;;18.55;85.77;101056.88;5078730;27;48140;-79
2022/06/20 08:12:41;;;;;;;;;52.75;43.25;;;;;18.62;85.83;101067.56;5099057;27;45327;-75
2022/06/20 08:15:20;;;;;;;;;31.33;28.33;;;;;18.59;85.63;101061.81;5084286;27;45371;-76
2022/06/20 08:17:46;;;;;;;;;27.67;27.67;;;;;18.59;85.12;101068.03;5086292;27;45418;-77
2022/06/20 08:20:12;;;;;;;;;35.25;32.50;;;;;18.57;85.58;101061.22;5102684;27;46269;-76
2022/06/20 08:22:53;;;;;;;;;36.00;30.75;;;;;18.58;85.73;101054.81;5087428;27;45827;-76
2022/06/20 08:25:23;;;;;;;;;29.00;27.33;;;;;18.66;84.80;101062.59;5082467;27;45409;-76
2022/06/20 08:28:02;;;;;;;;;31.67;28.00;;;;;18.69;84.56;101054.06;5081389;27;45387;-77
2022/06/20 08:30:47;;;;;;;;;26.33;26.00;;;;;18.77;85.44;101052.97;5063492;28;47316;-76
2022/06/20 08:33:13;;;;;;;;;36.00;32.00;;;;;18.90;85.93;101060.94;5077479;27;45589;-77
2022/06/20 08:36:00;;;;;;;;;28.33;26.00;;;;;18.97;84.84;101055.47;5081908;27;45470;-76
2022/06/20 08:38:44;;;;;;;;;46.00;39.00;;;;;18.99;84.24;101047.16;5081222;27;45430;-75
2022/06/20 08:41:19;;;;;;;;;59.00;46.25;;;;;19.07;84.42;101063.03;5064247;28;48253;-75
2022/06/20 08:44:16;;;;;;;;;71.00;61.75;;;;;19.17;84.26;101065.22;5080716;27;45534;-78
2022/06/20 08:47:00;;;;;;;;;72.00;60.00;;;;;19.21;83.81;101068.31;5086212;27;45503;-77
2022/06/20 08:49:47;;;;;;;;;40.50;32.75;;;;;19.15;83.65;101061.94;5099109;27;45416;-75
2022/06/20 08:52:31;;;;;;;;;58.50;46.50;;;;;19.13;83.53;101070.22;5081139;27;45245;-75
2022/06/20 08:55:05;;;;;;;;;74.50;64.50;;;;;19.15;84.32;101072.69;5081337;27;45367;-76
2022/06/20 08:57:36;;;;;;;;;29.00;28.00;;;;;19.17;83.51;101086.78;5081681;27;45383;-76
2022/06/20 09:00:26;;;;;;;;;27.00;27.00;;;;;19.16;83.87;101094.03;5081126;27;45220;-76
2022/06/20 09:03:24;;;;;;;;;28.67;26.67;;;;;19.04;83.53;101087.72;5080563;27;45370;-75
2022/06/20 09:06:04;;;;;;;;;28.33;26.00;;;;;19.13;83.13;101102.56;5101211;27;45423;-76
2022/06/20 09:09:07;;;;;;;;;35.75;32.25;;;;;19.13;83.45;101107.94;5080749;27;45346;-75
2022/06/20 09:11:32;;;;;;;;;29.67;29.00;;;;;19.11;83.18;101107.38;5081914;27;45351;-75
2022/06/20 09:14:00;;;;;;;;;32.00;30.00;;;;;19.12;83.40;101119.78;5086679;27;45310;-75
2022/06/20 09:16:35;;;;;;;;;31.33;28.00;;;;;19.11;82.70;101103.84;5092193;27;45292;-76
2022/06/20 09:19:15;;;;;;;;;32.67;30.67;;;;;19.04;82.83;101099.31;5100791;27;45516;-77
2022/06/20 09:21:41;;;;;;;;;32.33;28.00;;;;;19.11;82.79;101112.75;5084481;27;45276;-76
2022/06/20 09:24:35;;;;;;;;;24.67;24.33;;;;;19.11;82.88;101101.13;5086614;27;45421;-76
2022/06/20 09:27:09;;;;;;;;;27.00;26.33;;;;;19.23;82.88;101103.91;5077812;27;46386;-75
2022/06/20 09:29:46;;;;;;;;;23.00;23.00;;;;;19.32;82.80;101115.22;5095013;27;45498;-75
2022/06/20 09:32:37;;;;;;;;;25.00;25.00;;;;;19.40;82.84;101113.06;5088862;27;45310;-76
2022/06/20 09:35:05;;;;;;;;;26.33;26.33;;;;;19.50;82.23;101117.94;5091075;27;45331;-76
2022/06/20 09:37:49;;;;;;;;;25.67;25.67;;;;;19.53;82.00;101120.19;5083281;27;45341;-76
2022/06/20 09:40:23;;;;;;;;;27.67;25.67;;;;;19.58;82.03;101127.59;5075209;27;45314;-77
2022/06/20 09:42:57;;;;;;;;;26.67;24.00;;;;;19.62;81.54;101128.78;5089138;27;45472;-76
2022/06/20 09:45:30;;;;;;;;;26.67;25.00;;;;;19.67;81.84;101122.72;5086457;27;45352;-78
2022/06/20 09:48:14;;;;;;;;;26.00;25.00;;;;;19.72;81.65;101108.56;5095881;27;45432;-78
2022/06/20 09:50:45;;;;;;;;;27.00;26.67;;;;;19.87;81.31;101119.75;5093609;27;45427;-79
2022/06/20 09:53:37;;;;;;;;;24.33;24.33;;;;;19.92;81.78;101111.81;5098455;27;45213;-79
2022/06/20 09:56:34;;;;;;;;;23.33;22.33;;;;;20.10;80.88;101118.25;5084294;27;46242;-79
2022/06/20 09:59:07;;;;;;;;;23.33;22.33;;;;;20.15;80.86;101131.03;5100129;27;45382;-81
2022/06/20 10:02:04;;;;;;;;;24.00;24.00;;;;;20.11;80.53;101140.66;5074411;28;45915;-78
2022/06/20 10:04:35;;;;;;;;;21.33;20.00;;;;;20.10;80.64;101137.13;5078320;27;45309;-78
2022/06/20 10:07:29;;;;;;;;;27.33;27.00;;;;;20.13;80.55;101142.06;5078004;27;45583;-79
2022/06/20 10:10:22;;;;;;;;;20.67;20.67;;;;;20.18;80.59;101136.78;5074794;28;45381;-80
2022/06/20 10:13:10;;;;;;;;;22.00;21.67;;;;;20.18;79.34;101141.38;5072297;28;45373;-80
2022/06/20 10:15:57;;;;;;;;;23.67;22.33;;;;;20.26;79.20;101151.03;5058930;28;45318;-80
2022/06/20 10:18:37;;;;;;;;;22.00;20.67;;;;;20.03;79.24;101104.03;5058765;28;46382;-80
2022/06/20 10:21:13;;;;;;;;;24.67;23.00;;;;;20.33;78.98;101149.06;5070452;28;45384;-79
2022/06/20 10:24:04;;;;;;;;;25.33;24.33;;;;;20.27;78.80;101137.31;5063002;28;45804;-80
2022/06/20 10:26:57;;;;;;;;;25.67;23.67;;;;;20.36;78.57;101155.88;5075867;28;45555;-78
2022/06/20 10:29:35;;;;;;;;;24.67;24.33;;;;;20.42;78.80;101160.34;5076965;28;48708;-80
2022/06/20 10:32:23;;;;;;;;;24.67;24.67;;;;;20.55;78.92;101153.91;5073964;28;45355;-80
2022/06/20 10:34:54;;;;;;;;;29.67;25.33;;;;;20.72;78.74;101151.38;5070324;28;45338;-80
2022/06/20 10:37:37;;;;;;;;;24.00;23.67;;;;;20.84;78.49;101147.84;5091703;27;45432;-81
2022/06/20 10:40:18;;;;;;;;;101.50;93.00;;;;;20.99;77.94;101140.16;5068097;28;47672;-82
2022/06/20 10:42:50;;;;;;;;;73.25;65.50;;;;;21.12;77.49;101143.66;5058843;28;45388;-80
2022/06/20 10:45:32;;;;;;;;;69.00;58.00;;;;;21.25;76.73;101146.13;5075151;28;45307;-81
2022/06/20 10:48:09;;;;;;;;;85.75;77.25;;;;;21.37;76.88;101151.50;5077401;27;45389;-80
2022/06/20 10:50:44;;;;;;;;;73.50;63.00;;;;;21.46;75.94;101145.75;5079723;27;46167;-79
2022/06/20 10:53:18;;;;;;;;;43.00;35.50;;;;;21.55;76.51;101147.03;5076552;27;45463;-80
2022/06/20 10:55:59;;;;;;;;;45.75;38.00;;;;;21.69;75.82;101139.47;5074982;27;45380;-81
2022/06/20 10:59:02;;;;;;;;;23.00;23.00;;;;;21.74;74.81;101141.44;5057997;28;45561;-81
2022/06/20 11:01:42;;;;;;;;;23.67;23.33;;;;;21.78;75.38;101153.44;5083120;27;45470;-81
2022/06/20 11:04:08;;;;;;;;;67.25;58.25;;;;;21.90;75.55;101154.25;5101905;27;45322;-77
2022/06/20 11:07:00;;;;;;;;;52.00;42.00;;;;;22.04;74.91;101151.25;5068849;27;45371;-78
2022/06/20 11:09:32;;;;;;;;;41.67;34.33;;;;;22.15;74.80;101149.56;5079348;28;45356;-79
2022/06/20 11:12:02;;;;;;;;;71.00;63.75;;;;;22.33;74.52;101157.47;5078941;27;47001;-77
2022/06/20 11:14:42;;;;;;;;;42.00;34.25;;;;;22.43;73.57;101161.44;5088542;27;45422;-78
2022/06/20 11:17:20;;;;;;;;;31.33;27.67;;;;;22.45;73.18;101157.41;5078894;27;45431;-78
2022/06/20 11:19:56;;;;;;;;;70.75;60.75;;;;;22.45;72.78;101162.00;5093273;27;46311;-78
2022/06/20 11:22:29;;;;;;;;;55.25;44.25;;;;;22.51;72.42;101158.31;5089375;27;45419;-78
2022/06/20 11:25:15;;;;;;;;;33.67;30.00;;;;;22.61;73.47;101159.56;5078966;27;45312;-79
2022/06/20 11:28:18;;;;;;;;;25.67;25.00;;;;;22.67;71.88;101169.44;5070214;27;45333;-79
2022/06/20 11:30:53;;;;;;;;;27.67;27.33;;;;;22.73;71.93;101157.63;5075804;27;46757;-80
2022/06/20 11:34:01;;;;;;;;;50.00;40.25;;;;;22.82;71.93;101160.75;5079419;27;47483;-80
2022/06/20 11:37:01;;;;;;;;;27.33;26.00;;;;;22.83;71.05;101163.19;5093298;27;45591;-80
2022/06/20 11:39:47;;;;;;;;;41.25;34.50;;;;;22.85;71.29;101171.09;5078683;27;45524;-78
2022/06/20 11:42:35;;;;;;;;;25.00;24.33;;;;;22.88;71.56;101156.22;5079078;27;47101;-80
2022/06/20 11:45:32;;;;;;;;;26.00;25.33;;;;;23.00;70.97;101165.09;5077784;27;47576;-81
2022/06/20 11:48:23;;;;;;;;;28.67;27.67;;;;;23.00;70.53;101170.50;5076223;27;45486;-80
2022/06/20 11:51:17;;;;;;;;;29.00;27.67;;;;;22.95;70.25;101181.25;5097913;27;45409;-77
2022/06/20 11:54:13;;;;;;;;;22.33;22.00;;;;;22.94;70.93;101166.06;5098573;27;45671;-80
2022/06/20 11:56:57;;;;;;;;;63.75;52.75;;;;;22.95;70.50;101162.28;5081045;27;47565;-78
2022/06/20 11:59:27;;;;;;;;;51.50;41.00;;;;;22.98;70.57;101158.28;5095339;27;45454;-80